Time;durP1;ratioP1;P1;durP2;ratioP2;P2;SDS_P1;SDS_P2;PMS_P1;PMS_P2;Temp;Humidity;BMP_temperature;BMP_pressure;BME280_temperature;BME280_humidity;BME280_pressure;Samples;Min_cycle;Max_cycle;Signal;HPM_P1;HPM_P2
2022/08/22 00:00:10;;;;;;;3.00;1.48;;;;;;;16.44;100.00;98322.59;15309568;19;20027;-80
2022/08/22 00:05:29;;;;;;;6.55;1.67;;;;;;;16.33;100.00;98327.56;15279934;19;20006;-80
2022/08/22 00:10:50;;;;;;;6.35;1.60;;;;;;;16.23;100.00;98327.09;15286609;19;20597;-81
2022/08/22 00:16:05;;;;;;;3.03;1.40;;;;;;;16.15;100.00;98335.41;15300608;19;20014;-81
2022/08/22 00:21:13;;;;;;;3.78;1.60;;;;;;;16.07;100.00;98332.84;15301123;19;20042;-81
2022/08/22 00:26:32;;;;;;;4.43;1.45;;;;;;;16.00;100.00;98333.66;15301105;19;20025;-82
2022/08/22 00:31:44;;;;;;;4.78;1.70;;;;;;;15.95;100.00;98327.13;15302427;19;20014;-81
2022/08/22 00:36:56;;;;;;;2.17;1.30;;;;;;;15.91;100.00;98339.41;15298650;19;20509;-81
2022/08/22 00:42:40;;;;;;;3.10;1.60;;;;;;;15.85;100.00;98338.34;15298389;19;20011;-81
2022/08/22 00:48:13;;;;;;;6.95;1.65;;;;;;;15.76;100.00;98334.88;15311644;19;20006;-81
2022/08/22 00:53:43;;;;;;;3.05;1.50;;;;;;;15.67;100.00;98328.78;15350131;19;20022;-82
2022/08/22 00:59:18;;;;;;;3.50;1.55;;;;;;;15.57;100.00;98339.16;15297719;19;20014;-81
2022/08/22 01:04:51;;;;;;;5.55;1.70;;;;;;;15.48;100.00;98329.44;15297009;19;20007;-81
2022/08/22 01:10:13;;;;;;;2.72;1.73;;;;;;;15.41;100.00;98330.22;15289836;19;20513;-82
2022/08/22 01:15:23;;;;;;;4.15;1.60;;;;;;;15.35;100.00;98320.13;15306031;19;20018;-81
2022/08/22 01:21:10;;;;;;;3.72;1.90;;;;;;;15.31;100.00;98343.28;15294551;19;20014;-81
2022/08/22 01:26:53;;;;;;;6.68;1.80;;;;;;;15.25;100.00;98346.75;15288525;19;20046;-82
2022/08/22 01:32:39;;;;;;;5.15;1.80;;;;;;;15.15;100.00;98349.81;15289566;19;20035;-81
2022/08/22 01:38:18;;;;;;;3.53;1.90;;;;;;;15.07;100.00;98347.19;15292312;19;20506;-81
2022/08/22 01:43:37;;;;;;;5.60;1.85;;;;;;;14.96;100.00;98351.28;15284668;19;20381;-81
2022/08/22 01:49:10;;;;;;;4.18;2.15;;;;;;;14.87;100.00;98350.53;15289727;19;20010;-81
2022/08/22 01:54:32;;;;;;;3.53;1.70;;;;;;;14.77;100.00;98356.25;15291047;19;20015;-81
2022/08/22 01:59:41;;;;;;;4.10;1.70;;;;;;;14.70;100.00;98360.78;15288433;19;20014;-81
2022/08/22 02:04:54;;;;;;;6.45;1.83;;;;;;;14.69;100.00;98369.09;15285894;19;20098;-81
2022/08/22 02:10:12;;;;;;;4.82;2.00;;;;;;;14.62;100.00;98363.56;15283839;19;20018;-81
2022/08/22 02:15:24;;;;;;;3.13;1.88;;;;;;;14.56;100.00;98362.44;15282420;19;20023;-81
2022/08/22 02:20:35;;;;;;;4.45;2.10;;;;;;;14.52;100.00;98363.00;15286754;19;20015;-81
2022/08/22 02:25:56;;;;;;;3.35;1.75;;;;;;;14.47;100.00;98355.41;15292795;19;20026;-81
2022/08/22 02:31:07;;;;;;;2.53;1.67;;;;;;;14.41;100.00;98362.44;15291961;19;20023;-81
2022/08/22 02:36:19;;;;;;;4.55;2.00;;;;;;;14.31;100.00;98360.03;15279820;19;20010;-81
2022/08/22 02:41:30;;;;;;;3.38;1.75;;;;;;;14.29;100.00;98353.09;15289210;19;20003;-81
2022/08/22 02:46:48;;;;;;;3.55;1.80;;;;;;;14.27;100.00;98358.72;15285053;19;20018;-81
2022/08/22 02:52:04;;;;;;;3.45;1.80;;;;;;;14.22;100.00;98363.00;15289567;19;20014;-81
2022/08/22 02:57:18;;;;;;;4.45;1.90;;;;;;;14.16;100.00;98357.31;15292278;19;20042;-80
2022/08/22 03:02:38;;;;;;;4.70;1.92;;;;;;;14.12;100.00;98353.28;15289210;19;20022;-81
2022/08/22 03:07:50;;;;;;;4.60;1.73;;;;;;;14.09;100.00;98352.81;15284346;19;20356;-80
2022/08/22 03:13:01;;;;;;;;;;;;;;;14.05;100.00;98357.78;15288512;19;20038;-80
2022/08/22 03:18:17;;;;;;;4.57;1.92;;;;;;;13.99;100.00;98359.31;15284472;19;19918;-81
2022/08/22 03:23:38;;;;;;;3.90;2.05;;;;;;;13.97;100.00;98349.72;15289454;19;20010;-78
2022/08/22 03:28:53;;;;;;;4.40;2.23;;;;;;;13.96;100.00;98348.88;15288730;19;20708;-80
2022/08/22 03:34:22;;;;;;;3.60;2.03;;;;;;;13.93;100.00;98359.25;15293037;19;20018;-80
2022/08/22 03:39:45;;;;;;;5.32;2.25;;;;;;;13.89;100.00;98357.94;15291955;19;20015;-81
2022/08/22 03:45:27;;;;;;;8.05;2.70;;;;;;;13.89;100.00;98366.88;15293103;19;20006;-81
2022/08/22 03:50:52;;;;;;;6.25;2.60;;;;;;;13.84;100.00;98370.16;15316908;19;20085;-82
2022/08/22 03:56:33;;;;;;;9.00;2.90;;;;;;;13.87;100.00;98379.78;15307762;19;20043;-80
2022/08/22 04:02:00;;;;;;;3.97;2.67;;;;;;;13.81;100.00;98375.94;15328964;19;20018;-81
2022/08/22 04:07:35;;;;;;;4.57;2.40;;;;;;;13.81;100.00;98378.66;15353516;19;20752;-81
2022/08/22 04:12:58;;;;;;;4.20;2.35;;;;;;;13.79;100.00;98380.69;15341734;19;20023;-82
2022/08/22 04:18:19;;;;;;;2.92;2.05;;;;;;;13.75;100.00;98379.38;15307898;19;20036;-82
2022/08/22 04:23:46;;;;;;;5.80;2.33;;;;;;;13.72;100.00;98379.72;15298988;19;20022;-80
2022/08/22 04:28:58;;;;;;;5.90;2.20;;;;;;;13.64;100.00;98379.81;15308587;19;20803;-81
2022/08/22 04:34:12;;;;;;;4.38;2.50;;;;;;;13.62;100.00;98390.84;15298051;19;20034;-82
2022/08/22 04:39:23;;;;;;;2.45;2.05;;;;;;;13.59;100.00;98390.31;15303777;19;20006;-81
2022/08/22 04:44:35;;;;;;;4.10;2.20;;;;;;;13.54;100.00;98393.59;15298911;19;20373;-81
2022/08/22 04:49:53;;;;;;;4.68;2.83;;;;;;;13.52;100.00;98390.25;15302500;19;20357;-81
2022/08/22 04:55:05;;;;;;;5.22;2.63;;;;;;;13.50;100.00;98397.69;15293896;19;20015;-80
2022/08/22 05:00:12;;;;;;;3.50;2.28;;;;;;;13.47;100.00;98409.69;15301123;19;20002;-80
2022/08/22 05:05:25;;;;;;;3.67;2.30;;;;;;;13.47;100.00;98411.59;15299763;19;20443;-81
2022/08/22 05:10:36;;;;;;;4.00;2.40;;;;;;;13.47;100.00;98417.81;15297921;19;20046;-81
2022/08/22 05:15:46;;;;;;;3.22;2.40;;;;;;;13.46;100.00;98418.88;15294644;19;20010;-81
2022/08/22 05:20:55;;;;;;;5.68;2.60;;;;;;;13.49;100.00;98423.91;15300832;19;20043;-82
2022/08/22 05:26:04;;;;;;;4.03;2.35;;;;;;;13.49;100.00;98423.91;15290746;19;20364;-82
2022/08/22 05:31:14;;;;;;;3.33;2.42;;;;;;;13.53;100.00;98430.66;15297357;19;20373;-80
2022/08/22 05:36:26;;;;;;;2.85;2.17;;;;;;;13.56;100.00;98438.41;15294249;19;20002;-84
2022/08/22 05:41:37;;;;;;;4.10;2.55;;;;;;;13.59;100.00;98444.47;15298812;19;20034;-83
2022/08/22 05:46:44;;;;;;;4.72;2.50;;;;;;;13.64;100.00;98447.50;15295078;19;20015;-83
2022/08/22 05:52:08;;;;;;;5.93;2.60;;;;;;;13.73;100.00;98453.69;15296184;19;20010;-80
2022/08/22 05:57:22;;;;;;;3.72;2.20;;;;;;;13.78;100.00;98454.84;15291256;19;20034;-84
2022/08/22 06:02:40;;;;;;;3.97;2.45;;;;;;;13.90;100.00;98457.13;15294588;19;20022;-82
2022/08/22 06:07:51;;;;;;;4.03;2.38;;;;;;;14.02;100.00;98455.66;15293972;19;20054;-82
2022/08/22 06:13:03;;;;;;;3.25;2.40;;;;;;;14.18;100.00;98463.63;15294172;19;20003;-83
2022/08/22 06:18:18;;;;;;;4.78;2.40;;;;;;;14.36;100.00;98462.44;15290166;19;20038;-85
2022/08/22 06:23:29;;;;;;;3.47;2.20;;;;;;;14.53;100.00;98467.69;15289380;19;20018;-82
2022/08/22 06:28:38;;;;;;;3.13;2.03;;;;;;;14.70;100.00;98471.94;15286245;19;20010;-84
2022/08/22 06:34:07;;;;;;;4.28;2.20;;;;;;;14.88;100.00;98468.00;15289765;19;20029;-85
2022/08/22 06:39:19;;;;;;;5.13;2.30;;;;;;;15.02;100.00;98466.31;15295158;19;20617;-85
2022/08/22 06:44:28;;;;;;;4.75;2.10;;;;;;;15.17;100.00;98463.59;15323601;19;20074;-86
2022/08/22 06:49:36;;;;;;;4.30;2.15;;;;;;;15.33;100.00;98462.50;15306476;19;20027;-87
2022/08/22 06:54:48;;;;;;;5.18;2.10;;;;;;;15.54;100.00;98470.69;15305029;19;20006;-88
2022/08/22 06:59:55;;;;;;;;;;;;;;;15.76;100.00;98459.84;15302745;19;20009;-85
2022/08/22 07:05:00;;;;;;;3.20;2.00;;;;;;;15.93;100.00;98457.75;15296943;19;19945;-85
2022/08/22 07:10:08;;;;;;;4.88;2.10;;;;;;;16.16;100.00;98443.94;15291968;19;20038;-88
2022/08/22 07:15:21;;;;;;;4.10;2.28;;;;;;;16.39;100.00;98455.59;15293194;19;20008;-87
2022/08/22 07:20:30;;;;;;;4.35;1.92;;;;;;;16.59;100.00;98455.72;15301373;19;20014;-87
2022/08/22 07:25:54;;;;;;;4.85;1.98;;;;;;;16.83;100.00;98448.97;15352993;19;20033;-85
2022/08/22 07:31:01;;;;;;;4.68;2.20;;;;;;;17.09;100.00;98440.13;15334984;19;20079;-86
2022/08/22 07:36:22;;;;;;;3.35;1.92;;;;;;;17.34;100.00;98436.03;15303036;19;20716;-87
2022/08/22 07:41:42;;;;;;;3.33;2.00;;;;;;;17.58;100.00;98431.88;15312331;19;20034;-88
2022/08/22 07:46:57;;;;;;;5.78;2.00;;;;;;;17.83;100.00;98434.84;15321749;19;20229;-85
2022/08/22 07:52:07;;;;;;;8.65;1.95;;;;;;;18.12;100.00;98426.50;15318892;19;20495;-86
2022/08/22 07:57:24;;;;;;;4.30;1.65;;;;;;;18.40;100.00;98423.56;15322742;19;20042;-86
2022/08/22 08:02:29;;;;;;;4.65;1.80;;;;;;;18.71;100.00;98419.28;15310119;19;20040;-86
2022/08/22 08:07:34;;;;;;;2.90;1.70;;;;;;;19.06;100.00;98419.00;15301533;19;20014;-86
2022/08/22 08:12:47;;;;;;;2.67;1.40;;;;;;;19.33;100.00;98416.13;15304661;19;20011;-87
2022/08/22 08:18:10;;;;;;;2.75;1.20;;;;;;;19.70;100.00;98410.84;15305179;19;20038;-86
2022/08/22 08:23:18;;;;;;;2.70;1.05;;;;;;;19.90;100.00;98404.44;15301758;19;20014;-87
2022/08/22 08:28:37;;;;;;;3.00;1.30;;;;;;;20.21;100.00;98399.97;15299046;19;20010;-84
2022/08/22 08:33:49;;;;;;;3.05;1.08;;;;;;;20.39;100.00;98409.28;15293489;19;20026;-84
2022/08/22 08:39:00;;;;;;;2.65;1.23;;;;;;;20.49;100.00;98406.84;15296756;19;20127;-85
2022/08/22 08:44:24;;;;;;;3.67;1.00;;;;;;;20.61;100.00;98416.00;15298565;19;20018;-83
2022/08/22 08:49:57;;;;;;;2.67;0.95;;;;;;;20.81;100.00;98425.09;15301755;19;20015;-85
2022/08/22 08:55:13;;;;;;;5.10;1.30;;;;;;;20.96;100.00;98413.75;15295814;19;20018;-85
2022/08/22 09:00:46;;;;;;;4.32;1.05;;;;;;;21.14;100.00;98416.44;15297617;19;20089;-85
2022/08/22 09:06:22;;;;;;;8.52;1.33;;;;;;;21.34;100.00;98412.63;15313148;19;20035;-84
2022/08/22 09:11:49;;;;;;;4.65;1.10;;;;;;;21.59;100.00;98417.09;15295557;19;20006;-84
2022/08/22 09:17:20;;;;;;;2.72;1.08;;;;;;;21.84;100.00;98422.47;15301979;19;20021;-84
2022/08/22 09:23:04;;;;;;;2.80;1.02;;;;;;;22.10;100.00;98420.38;15299759;19;20038;-82
2022/08/22 09:28:21;;;;;;;3.28;1.20;;;;;;;22.39;100.00;98407.63;15294203;19;20018;-85
2022/08/22 09:33:39;;;;;;;5.72;1.10;;;;;;;22.56;100.00;98412.41;15289912;19;20374;-86
2022/08/22 09:38:55;;;;;;;5.90;1.27;;;;;;;22.56;100.00;98412.41;15295043;19;20463;-88
2022/08/22 09:44:11;;;;;;;2.65;1.17;;;;;;;22.69;100.00;98419.59;15286069;19;20109;-85
2022/08/22 09:49:34;;;;;;;2.70;1.25;;;;;;;22.89;100.00;98409.03;15294409;19;20074;-85
2022/08/22 09:54:47;;;;;;;2.30;1.15;;;;;;;23.01;93.75;98408.16;15324493;19;19999;-84
2022/08/22 10:00:00;;;;;;;;;;;;;;;23.31;96.77;98401.63;15363176;19;20007;-84
2022/08/22 10:05:29;;;;;;;3.47;1.25;;;;;;;23.46;87.47;98410.19;15365199;19;19929;-81
2022/08/22 10:11:10;;;;;;;6.13;1.20;;;;;;;23.58;95.07;98407.38;15327989;19;20023;-83
2022/08/22 10:16:26;;;;;;;3.80;1.08;;;;;;;23.58;99.42;98414.81;15291948;19;20011;-83
2022/08/22 10:21:41;;;;;;;4.85;1.42;;;;;;;23.61;90.61;98415.13;15300388;19;20045;-84
2022/08/22 10:26:50;;;;;;;2.88;1.00;;;;;;;23.76;86.96;98408.25;15291012;19;20018;-85
2022/08/22 10:32:00;;;;;;;2.85;1.08;;;;;;;23.90;88.04;98414.25;15294992;19;20377;-84
2022/08/22 10:37:29;;;;;;;4.28;1.13;;;;;;;23.96;85.70;98416.06;15285973;19;20468;-85
2022/08/22 10:42:51;;;;;;;2.88;1.20;;;;;;;23.83;69.83;98419.91;15314157;19;20025;-84
2022/08/22 10:48:25;;;;;;;2.65;1.15;;;;;;;23.76;73.91;98420.06;15333475;19;20018;-85
2022/08/22 10:53:41;;;;;;;3.15;1.10;;;;;;;23.52;73.58;98413.88;15295604;19;20046;-85
2022/08/22 10:58:54;;;;;;;3.53;1.10;;;;;;;23.78;91.02;98415.16;14777122;19;10000591;-84
2022/08/22 11:04:13;;;;;;;3.85;1.20;;;;;;;23.86;77.79;98402.91;15287647;19;20046;-84
2022/08/22 11:09:30;;;;;;;2.28;1.10;;;;;;;23.97;75.75;98406.72;15288616;19;20018;-84
2022/08/22 11:15:04;;;;;;;3.15;1.20;;;;;;;23.95;71.86;98401.44;15288992;19;20015;-84
2022/08/22 11:20:20;;;;;;;1.88;0.90;;;;;;;23.92;67.98;98396.44;15286013;19;20010;-84
2022/08/22 11:25:45;;;;;;;2.55;1.00;;;;;;;24.25;69.55;98393.94;15299958;19;20018;-87
2022/08/22 11:31:18;;;;;;;2.20;0.85;;;;;;;24.35;70.54;98396.84;15291530;19;20027;-84
2022/08/22 11:36:35;;;;;;;3.83;1.10;;;;;;;24.43;73.67;98392.84;15290304;19;20007;-81
2022/08/22 11:41:53;;;;;;;4.75;1.10;;;;;;;24.58;73.02;98393.06;15287654;19;20078;-81
2022/08/22 11:47:01;;;;;;;4.28;1.20;;;;;;;24.65;67.13;98392.03;15291764;19;20025;-80
2022/08/22 11:52:49;;;;;;;3.88;1.02;;;;;;;24.85;61.25;98384.09;15291412;19;20014;-82
2022/08/22 11:58:20;;;;;;;4.03;1.00;;;;;;;24.94;63.80;98381.69;15284501;19;20046;-81
2022/08/22 12:03:48;;;;;;;2.92;0.90;;;;;;;25.06;58.36;98378.81;15286438;19;20014;-84
2022/08/22 12:09:19;;;;;;;3.97;1.02;;;;;;;25.06;61.76;98370.56;15291529;19;20018;-82
2022/08/22 12:14:36;;;;;;;2.55;0.90;;;;;;;25.13;61.86;98365.66;15295955;19;20626;-81
2022/08/22 12:19:52;;;;;;;2.20;0.90;;;;;;;25.39;63.38;98364.03;15300090;19;20039;-81
2022/08/22 12:25:30;;;;;;;3.80;1.00;;;;;;;25.64;61.79;98362.63;15286954;19;20010;-81
2022/08/22 12:30:47;;;;;;;3.42;1.10;;;;;;;25.89;59.71;98346.59;15298149;19;20475;-82
2022/08/22 12:36:20;;;;;;;2.72;0.90;;;;;;;25.96;56.22;98350.78;15294660;19;20111;-81
2022/08/22 12:42:00;;;;;;;2.88;0.80;;;;;;;25.96;55.04;98344.41;15293408;19;20002;-82
2022/08/22 12:47:26;;;;;;;5.57;1.10;;;;;;;25.99;53.18;98344.72;15281333;19;20019;-83
2022/08/22 12:52:51;;;;;;;3.25;0.93;;;;;;;26.16;54.84;98332.72;15291916;19;20027;-83
2022/08/22 12:58:06;;;;;;;3.25;1.05;;;;;;;26.29;55.79;98331.41;15286304;19;20038;-81
2022/08/22 13:03:26;;;;;;;2.60;1.10;;;;;;;26.74;52.45;98332.78;15291734;19;20011;-82
2022/08/22 13:08:40;;;;;;;2.00;0.90;;;;;;;27.11;53.46;98317.16;15290893;19;20506;-81
2022/08/22 13:13:50;;;;;;;3.92;1.08;;;;;;;27.34;53.20;98321.34;15291729;19;20011;-81
2022/08/22 13:19:08;;;;;;;2.15;1.00;;;;;;;27.59;48.07;98319.75;15284497;19;20010;-82
2022/08/22 13:24:24;;;;;;;1.58;0.90;;;;;;;27.87;50.25;98325.03;15290058;19;20015;-82
2022/08/22 13:29:46;;;;;;;3.53;0.90;;;;;;;27.77;50.07;98326.69;15286264;19;20015;-81
2022/08/22 13:34:57;;;;;;;2.42;0.90;;;;;;;27.98;47.70;98321.97;15288313;19;20018;-81
2022/08/22 13:40:06;;;;;;;2.83;0.90;;;;;;;28.15;48.42;98320.88;15291751;19;20401;-81
2022/08/22 13:45:17;;;;;;;3.80;0.80;;;;;;;28.12;48.26;98327.78;15291732;19;20015;-82
2022/08/22 13:50:30;;;;;;;5.97;1.23;;;;;;;28.27;48.39;98328.88;15289346;19;20407;-82
2022/08/22 13:56:02;;;;;;;2.05;0.82;;;;;;;28.27;47.34;98324.19;15288545;19;20006;-81
2022/08/22 14:01:25;;;;;;;1.98;1.00;;;;;;;28.21;46.73;98318.94;15289871;19;20014;-82
2022/08/22 14:06:40;;;;;;;2.83;1.00;;;;;;;28.18;45.74;98322.25;15342487;19;20018;-80
2022/08/22 14:11:51;;;;;;;2.45;0.90;;;;;;;27.96;48.42;98321.41;15294947;19;20006;-82
2022/08/22 14:17:00;;;;;;;1.85;0.82;;;;;;;27.62;46.59;98327.50;15287583;19;20010;-80
2022/08/22 14:22:10;;;;;;;4.13;0.90;;;;;;;27.45;47.06;98324.19;15287148;19;20030;-82
2022/08/22 14:27:30;;;;;;;2.13;0.90;;;;;;;27.46;46.85;98331.38;15286980;19;20033;-82
2022/08/22 14:32:46;;;;;;;6.07;1.13;;;;;;;26.97;46.20;98318.78;15283583;19;20335;-82
2022/08/22 14:37:58;;;;;;;2.85;0.98;;;;;;;27.15;47.92;98311.91;15289399;19;20015;-82
2022/08/22 14:43:10;;;;;;;3.67;0.90;;;;;;;27.19;47.93;98310.28;15293467;19;20014;-82
2022/08/22 14:48:22;;;;;;;2.35;0.95;;;;;;;27.12;48.49;98324.38;15287339;19;21076;-82
2022/08/22 14:53:40;;;;;;;1.97;0.93;;;;;;;27.26;48.69;98319.13;15299547;19;20006;-82
2022/08/22 14:58:51;;;;;;;2.90;1.00;;;;;;;27.01;46.40;98323.50;15288660;19;20275;-82
2022/08/22 15:04:02;;;;;;;4.20;0.93;;;;;;;27.00;47.31;98309.94;15288771;19;20007;-81
2022/08/22 15:09:32;;;;;;;2.60;0.80;;;;;;;26.81;46.98;98318.75;15287061;19;20078;-80
2022/08/22 15:14:47;;;;;;;1.38;0.80;;;;;;;26.94;47.99;98314.63;15293874;19;20692;-81
2022/08/22 15:20:12;;;;;;;2.55;0.80;;;;;;;27.01;47.16;98311.63;15295743;19;20006;-80
2022/08/22 15:25:23;;;;;;;3.17;0.90;;;;;;;27.03;47.95;98313.00;15292449;19;20021;-82
2022/08/22 15:30:36;;;;;;;3.25;0.73;;;;;;;26.94;47.08;98311.88;15290683;19;20011;-79
2022/08/22 15:35:43;;;;;;;1.23;0.77;;;;;;;26.93;48.09;98307.44;15290891;19;20018;-81
2022/08/22 15:40:51;;;;;;;2.08;0.77;;;;;;;26.90;48.54;98302.44;15280318;19;20019;-81
2022/08/22 15:46:13;;;;;;;4.50;1.00;;;;;;;26.53;46.19;98303.38;15290320;19;20699;-82
2022/08/22 15:51:36;;;;;;;2.72;0.90;;;;;;;26.55;47.95;98306.69;15281956;19;20018;-82
2022/08/22 15:57:23;;;;;;;1.70;1.00;;;;;;;26.34;50.08;98301.09;15320118;19;20407;-82
2022/08/22 16:02:33;;;;;;;5.20;1.00;;;;;;;26.05;51.83;98298.66;15292763;19;20014;-81
2022/08/22 16:07:42;;;;;;;5.30;1.05;;;;;;;25.98;53.59;98295.31;15324794;19;20015;-82
2022/08/22 16:13:15;;;;;;;3.20;1.00;;;;;;;25.79;53.83;98295.75;15297630;19;20038;-81
2022/08/22 16:18:50;;;;;;;3.13;1.20;;;;;;;25.75;55.58;98289.06;15320875;19;20015;-81
2022/08/22 16:24:27;;;;;;;4.30;1.00;;;;;;;25.68;56.56;98296.75;15304712;19;20053;-82
2022/08/22 16:29:40;;;;;;;4.00;1.30;;;;;;;25.68;57.49;98288.47;15293968;19;20319;-82
2022/08/22 16:34:45;;;;;;;3.28;1.00;;;;;;;25.54;56.86;98293.59;15290175;19;20528;-82
2022/08/22 16:39:52;;;;;;;3.38;0.98;;;;;;;25.40;57.83;98290.41;15296022;19;20492;-81
2022/08/22 16:45:13;;;;;;;3.42;0.90;;;;;;;25.27;57.62;98293.59;15262064;19;20010;-83
2022/08/22 16:50:31;;;;;;;1.85;1.00;;;;;;;25.06;58.76;98287.88;15305518;19;20035;-85
2022/08/22 16:56:06;;;;;;;3.75;1.00;;;;;;;25.05;60.46;98294.47;15290908;19;20078;-85
2022/08/22 17:01:24;;;;;;;2.75;1.10;;;;;;;25.10;61.74;98296.44;15296166;19;20018;-85
2022/08/22 17:06:48;;;;;;;5.82;1.10;;;;;;;25.30;63.88;98298.59;15298028;19;20019;-87
2022/08/22 17:12:04;;;;;;;2.63;0.88;;;;;;;25.32;65.08;98294.47;15311295;19;20011;-85
2022/08/22 17:17:31;;;;;;;4.43;1.00;;;;;;;25.12;66.47;98289.56;15299779;19;20483;-87
2022/08/22 17:22:44;;;;;;;2.75;0.90;;;;;;;24.97;66.90;98295.75;15302707;19;20035;-84
2022/08/22 17:27:54;;;;;;;2.13;1.00;;;;;;;24.84;69.65;98305.28;15355405;19;20058;-83
2022/08/22 17:33:12;;;;;;;2.47;1.10;;;;;;;24.90;68.15;98295.16;14995796;19;5011601;-84
2022/08/22 17:38:27;;;;;;;3.55;1.08;;;;;;;24.76;70.98;98305.72;15295998;19;20054;-83
2022/08/22 17:43:40;;;;;;;2.17;0.90;;;;;;;24.57;74.90;98310.72;15299932;19;20017;-83
2022/08/22 17:49:04;;;;;;;3.17;1.10;;;;;;;24.48;77.10;98318.56;15289120;19;20018;-83
2022/08/22 17:54:22;;;;;;;3.20;1.15;;;;;;;24.46;78.50;98320.75;15294442;19;20010;-83
2022/08/22 17:59:37;;;;;;;3.10;1.17;;;;;;;24.26;82.77;98319.38;15294923;19;20015;-83
2022/08/22 18:04:59;;;;;;;3.60;1.23;;;;;;;24.05;85.38;98321.00;15292701;19;20098;-83
2022/08/22 18:10:13;;;;;;;2.45;1.15;;;;;;;23.87;89.05;98332.25;15288636;19;20010;-83
2022/08/22 18:15:26;;;;;;;4.70;1.20;;;;;;;23.62;92.65;98331.56;15306429;19;20014;-83
2022/08/22 18:20:42;;;;;;;2.35;1.08;;;;;;;23.37;96.70;98324.53;15286111;19;20009;-81
2022/08/22 18:26:00;;;;;;;2.60;0.90;;;;;;;23.11;99.13;98338.84;15289923;19;20358;-82
2022/08/22 18:31:10;;;;;;;2.83;1.00;;;;;;;22.82;100.00;98349.81;15291929;19;20077;-82
2022/08/22 18:36:25;;;;;;;3.67;0.90;;;;;;;22.53;100.00;98355.22;15292403;19;20014;-82
2022/08/22 18:41:35;;;;;;;2.80;0.98;;;;;;;22.22;100.00;98354.53;15289725;19;20047;-82
2022/08/22 18:46:44;;;;;;;2.77;1.17;;;;;;;22.00;100.00;98358.69;15285996;19;20137;-80
2022/08/22 18:52:14;;;;;;;3.40;1.25;;;;;;;21.74;100.00;98364.63;15286027;19;20039;-80
2022/08/22 18:57:43;;;;;;;3.78;0.80;;;;;;;21.56;100.00;98363.59;15267001;19;20050;-80
2022/08/22 19:03:10;;;;;;;2.67;1.00;;;;;;;21.35;100.00;98370.44;15297245;19;20038;-79
2022/08/22 19:08:53;;;;;;;3.83;1.00;;;;;;;21.20;100.00;98374.44;15289532;19;20029;-80
2022/08/22 19:14:18;;;;;;;2.83;0.90;;;;;;;21.04;100.00;98377.81;15280825;19;20349;-80
2022/08/22 19:25:24;;;;;;;3.40;0.95;;;;;;;20.71;100.00;98381.78;15280938;19;20047;-80
2022/08/22 19:30:44;;;;;;;;;;;;;;;20.54;100.00;98381.53;15287104;19;20015;-80
2022/08/22 19:36:09;;;;;;;3.55;1.00;;;;;;;20.38;100.00;98378.31;15284373;19;19918;-80
2022/08/22 19:41:45;;;;;;;1.85;0.73;;;;;;;20.28;100.00;98388.97;15286882;19;20039;-80
2022/08/22 19:47:04;;;;;;;3.08;1.00;;;;;;;20.12;100.00;98395.84;15279046;19;20039;-80
2022/08/22 19:52:23;;;;;;;5.53;0.95;;;;;;;20.00;100.00;98388.38;15283638;19;20018;-81
2022/08/22 19:57:44;;;;;;;1.80;0.90;;;;;;;19.85;100.00;98396.03;15282887;19;20042;-81
2022/08/22 20:03:03;;;;;;;2.75;0.90;;;;;;;19.73;100.00;98390.44;15286260;19;20034;-80
2022/08/22 20:08:50;;;;;;;1.58;1.02;;;;;;;19.69;100.00;98402.88;15285472;19;20022;-79
2022/08/22 20:14:18;;;;;;;3.30;1.02;;;;;;;19.59;100.00;98397.06;15284572;19;20038;-81
2022/08/22 20:19:45;;;;;;;1.90;1.00;;;;;;;19.52;100.00;98405.31;15295283;19;20800;-81
2022/08/22 20:25:17;;;;;;;4.50;1.10;;;;;;;19.40;100.00;98406.00;15309393;19;20043;-81
2022/08/22 20:30:47;;;;;;;3.40;1.30;;;;;;;19.25;100.00;98402.72;15342685;19;20010;-79
2022/08/22 20:36:20;;;;;;;3.33;1.20;;;;;;;19.17;100.00;98405.72;15371098;19;20014;-79
2022/08/22 20:41:36;;;;;;;2.45;1.05;;;;;;;19.05;100.00;98397.38;15380020;19;20010;-80
2022/08/22 20:47:06;;;;;;;3.55;1.00;;;;;;;19.00;100.00;98395.25;15363700;19;20015;-79
2022/08/22 20:52:24;;;;;;;1.60;0.98;;;;;;;18.96;100.00;98404.97;15307042;19;20033;-80
2022/08/22 20:57:30;;;;;;;3.55;1.15;;;;;;;18.90;100.00;98403.06;15303252;19;20042;-80
2022/08/22 21:02:45;;;;;;;3.22;1.20;;;;;;;18.82;100.00;98403.31;15296163;19;20012;-80
2022/08/22 21:08:13;;;;;;;5.93;1.50;;;;;;;18.75;100.00;98397.88;15297276;19;20019;-80
2022/08/22 21:13:20;;;;;;;4.90;1.30;;;;;;;18.73;100.00;98400.81;15288310;19;20018;-81
2022/08/22 21:18:30;;;;;;;2.28;1.15;;;;;;;18.68;100.00;98400.59;15291993;19;20039;-81
2022/08/22 21:23:36;;;;;;;4.95;1.10;;;;;;;18.61;100.00;98405.25;15282955;19;20018;-81
2022/08/22 21:28:57;;;;;;;2.53;1.15;;;;;;;18.54;100.00;98405.28;15287154;19;20010;-81
2022/08/22 21:34:13;;;;;;;2.35;1.00;;;;;;;18.41;100.00;98410.75;15285419;19;20760;-82
2022/08/22 21:39:22;;;;;;;2.47;1.30;;;;;;;18.35;100.00;98417.03;15288184;19;20014;-81
2022/08/22 21:44:33;;;;;;;3.70;1.10;;;;;;;18.27;100.00;98415.41;15288201;19;20086;-81
2022/08/22 21:50:01;;;;;;;3.47;1.10;;;;;;;18.17;100.00;98405.72;15289928;19;20015;-79
2022/08/22 21:55:18;;;;;;;2.40;1.10;;;;;;;18.14;100.00;98408.91;15288043;19;20006;-80
2022/08/22 22:00:51;;;;;;;4.82;1.20;;;;;;;18.08;100.00;98409.72;15288271;19;20116;-80
2022/08/22 22:06:01;;;;;;;4.28;1.20;;;;;;;18.00;100.00;98418.13;15279660;19;20038;-81
2022/08/22 22:11:12;;;;;;;2.83;1.23;;;;;;;17.97;100.00;98413.09;15289561;19;20128;-81
2022/08/22 22:16:24;;;;;;;3.28;1.20;;;;;;;17.93;100.00;98420.00;15287114;19;20011;-81
2022/08/22 22:21:31;;;;;;;3.70;1.35;;;;;;;17.86;100.00;98417.25;15296575;19;20035;-80
2022/08/22 22:26:36;;;;;;;2.42;1.30;;;;;;;17.81;100.00;98408.84;15276574;19;20046;-80
2022/08/22 22:31:41;;;;;;;3.92;1.60;;;;;;;17.71;100.00;98404.66;15287409;19;20017;-79
2022/08/22 22:36:49;;;;;;;2.58;1.48;;;;;;;17.65;100.00;98404.66;15282290;19;20035;-80
2022/08/22 22:41:53;;;;;;;3.08;1.50;;;;;;;17.62;100.00;98415.97;15288021;19;20038;-80
2022/08/22 22:46:59;;;;;;;2.67;1.50;;;;;;;17.54;100.00;98409.69;15288235;19;20011;-81
2022/08/22 22:52:06;;;;;;;3.00;1.40;;;;;;;17.53;100.00;98412.59;15285699;19;20054;-80
2022/08/22 22:57:15;;;;;;;2.78;1.23;;;;;;;17.48;100.00;98415.09;15289039;19;20017;-81
2022/08/22 23:02:29;;;;;;;2.78;1.38;;;;;;;17.42;100.00;98416.78;15294368;19;20512;-81
2022/08/22 23:07:37;;;;;;;2.83;1.40;;;;;;;17.37;100.00;98421.97;15295411;19;20015;-81
2022/08/22 23:12:42;;;;;;;4.18;1.60;;;;;;;17.27;100.00;98410.66;15295012;19;20040;-80
2022/08/22 23:17:47;;;;;;;3.08;1.40;;;;;;;17.10;100.00;98414.56;15284834;19;20014;-81
2022/08/22 23:22:54;;;;;;;3.08;1.30;;;;;;;17.04;100.00;98422.72;15283970;19;20006;-81
2022/08/22 23:28:00;;;;;;;3.97;1.40;;;;;;;16.96;100.00;98418.28;15284932;19;20252;-81
2022/08/22 23:33:05;;;;;;;1.85;1.20;;;;;;;16.89;100.00;98423.66;15291307;19;20007;-81
2022/08/22 23:38:13;;;;;;;2.42;1.30;;;;;;;16.82;100.00;98421.97;15288587;19;20010;-81
2022/08/22 23:43:25;;;;;;;2.80;1.30;;;;;;;16.72;100.00;98417.72;15279072;19;20018;-81
2022/08/22 23:48:30;;;;;;;2.58;1.40;;;;;;;16.63;100.00;98418.94;15284953;19;20507;-81
2022/08/22 23:53:37;;;;;;;3.10;1.42;;;;;;;16.53;100.00;98413.84;15283802;19;20042;-81
2022/08/22 23:58:42;;;;;;;3.05;1.50;;;;;;;16.47;100.00;98417.38;15289636;19;20010;-81
